Time;durP1;ratioP1;P1;durP2;ratioP2;P2;SDS_P1;SDS_P2;PMS_P1;PMS_P2;Temp;Humidity;BMP_temperature;BMP_pressure;BME280_temperature;BME280_humidity;BME280_pressure;Samples;Min_cycle;Max_cycle;Signal;HPM_P1;HPM_P2
2021/03/17 00:00:45;;;;;;;61.50;7.07;;;4.10;1.00;;;;;;5134844;27;20209;-66
2021/03/17 00:03:12;;;;;;;64.95;7.25;;;4.00;1.00;;;;;;5134977;27;20207;-66
2021/03/17 00:05:41;;;;;;;59.92;6.70;;;4.00;1.00;;;;;;5134700;27;20223;-66
2021/03/17 00:08:07;;;;;;;59.60;7.10;;;4.00;1.00;;;;;;5134797;27;20352;-66
2021/03/17 00:10:36;;;;;;;60.47;6.90;;;4.00;1.00;;;;;;5134711;27;20344;-66
2021/03/17 00:13:04;;;;;;;59.47;6.25;;;4.00;1.00;;;;;;5134578;27;20259;-66
2021/03/17 00:15:32;;;;;;;60.80;7.18;;;4.00;1.00;;;;;;5134326;27;20290;-66
2021/03/17 00:17:59;;;;;;;60.70;7.60;;;4.00;1.00;;;;;;5134647;27;20229;-66
2021/03/17 00:20:26;;;;;;;59.88;7.03;;;3.90;1.00;;;;;;5134604;27;20255;-66
2021/03/17 00:22:55;;;;;;;61.40;8.05;;;3.90;1.00;;;;;;5134413;27;20289;-66
2021/03/17 00:25:22;;;;;;;61.05;7.60;;;3.90;1.00;;;;;;5134293;27;20223;-66
2021/03/17 00:27:49;;;;;;;60.60;7.25;;;3.90;1.00;;;;;;5134168;27;20314;-66
2021/03/17 00:30:16;;;;;;;61.83;7.35;;;3.90;1.00;;;;;;5134197;27;20667;-66
2021/03/17 00:32:42;;;;;;;62.70;7.57;;;4.00;1.00;;;;;;5134294;27;20299;-66
2021/03/17 00:35:10;;;;;;;61.00;7.70;;;4.00;1.00;;;;;;5134250;27;20226;-66
2021/03/17 00:37:36;;;;;;;63.85;7.40;;;4.00;1.00;;;;;;5134069;27;20263;-66
2021/03/17 00:40:05;;;;;;;59.85;6.47;;;3.90;1.00;;;;;;5134088;27;20207;-66
2021/03/17 00:42:31;;;;;;;62.53;7.45;;;4.00;1.00;;;;;;5133723;27;20689;-66
2021/03/17 00:44:57;;;;;;;62.55;8.43;;;3.90;1.00;;;;;;5133865;27;20717;-66
2021/03/17 00:47:24;;;;;;;60.30;7.68;;;3.90;1.00;;;;;;5133956;27;20312;-66
2021/03/17 00:49:50;;;;;;;61.13;7.82;;;3.90;1.00;;;;;;5133088;27;20750;-66
2021/03/17 00:52:16;;;;;;;61.00;7.72;;;3.90;1.00;;;;;;5133731;27;20203;-67
2021/03/17 00:54:43;;;;;;;62.05;8.13;;;3.90;1.00;;;;;;5133734;27;20243;-66
2021/03/17 00:57:10;;;;;;;61.00;7.82;;;3.90;1.00;;;;;;5133503;27;20742;-66
2021/03/17 00:59:36;;;;;;;64.78;8.05;;;3.90;1.00;;;;;;5133795;27;20198;-66
2021/03/17 01:02:03;;;;;;;62.55;8.65;;;3.90;1.00;;;;;;5133675;27;20207;-65
2021/03/17 01:04:29;;;;;;;62.38;8.25;;;3.90;1.00;;;;;;5133682;27;20226;-65
2021/03/17 01:06:55;;;;;;;62.38;8.50;;;3.90;1.00;;;;;;5133523;27;20653;-65
2021/03/17 01:09:22;;;;;;;62.53;8.15;;;3.90;1.00;;;;;;5133471;27;20305;-65
2021/03/17 01:11:48;;;;;;;62.60;8.82;;;3.90;1.00;;;;;;5133306;27;20812;-65
2021/03/17 01:14:15;;;;;;;60.97;7.55;;;3.90;1.00;;;;;;5133400;27;20195;-65
2021/03/17 01:16:41;;;;;;;61.33;6.85;;;3.90;1.00;;;;;;5133414;27;20222;-65
2021/03/17 01:19:08;;;;;;;61.90;8.23;;;3.90;1.00;;;;;;5133446;27;20207;-65
2021/03/17 01:21:34;;;;;;;62.80;8.75;;;3.90;1.00;;;;;;5133410;27;20295;-66
2021/03/17 01:24:00;;;;;;;61.55;7.40;;;3.90;1.00;;;;;;5133004;27;20310;-66
2021/03/17 01:26:27;;;;;;;61.78;7.90;;;3.90;1.00;;;;;;5132855;27;20226;-66
2021/03/17 01:28:53;;;;;;;63.25;8.10;;;3.80;1.00;;;;;;5133364;27;20682;-66
2021/03/17 01:31:20;;;;;;;62.47;8.55;;;3.90;1.00;;;;;;5133223;27;20618;-68
2021/03/17 01:33:47;;;;;;;62.28;7.65;;;3.80;1.00;;;;;;5132949;27;20293;-66
2021/03/17 01:36:13;;;;;;;63.17;8.38;;;3.80;1.00;;;;;;5132891;27;20263;-66
2021/03/17 01:38:40;;;;;;;61.15;7.82;;;3.80;1.00;;;;;;5132911;27;20206;-66
2021/03/17 01:41:06;;;;;;;61.45;7.45;;;3.80;1.00;;;;;;5132934;27;20294;-66
2021/03/17 01:43:33;;;;;;;61.63;7.65;;;3.80;1.00;;;;;;5132787;27;20286;-66
2021/03/17 01:46:00;;;;;;;61.22;7.68;;;3.80;1.00;;;;;;5132843;27;20329;-66
2021/03/17 01:48:27;;;;;;;60.42;7.55;;;3.80;1.00;;;;;;5132612;27;20754;-66
2021/03/17 01:50:55;;;;;;;60.63;7.10;;;3.80;1.00;;;;;;5132825;27;20207;-66
2021/03/17 01:53:26;;;;;;;61.03;7.53;;;3.70;1.00;;;;;;5132427;27;20198;-66
2021/03/17 01:55:53;;;;;;;60.83;7.43;;;3.70;1.00;;;;;;5132924;27;20201;-66
2021/03/17 01:58:20;;;;;;;60.38;6.80;;;3.70;1.00;;;;;;5132785;27;20229;-66
2021/03/17 02:00:46;;;;;;;61.30;7.20;;;3.70;1.00;;;;;;5132780;27;20279;-66
2021/03/17 02:03:13;;;;;;;61.22;7.82;;;3.70;1.00;;;;;;5132637;27;20305;-66
2021/03/17 02:05:41;;;;;;;60.60;7.18;;;3.70;1.00;;;;;;5132419;27;20226;-66
2021/03/17 02:08:12;;;;;;;59.67;7.10;;;3.70;1.00;;;;;;5132307;27;20733;-66
2021/03/17 02:10:38;;;;;;;61.28;6.90;;;3.70;1.00;;;;;;5133142;27;20293;-66
2021/03/17 02:13:29;;;;;;;62.05;7.57;;;3.70;1.00;;;;;;5132627;27;20629;-66
2021/03/17 02:16:03;;;;;;;63.17;8.23;;;3.70;1.00;;;;;;5132534;27;20735;-66
2021/03/17 02:18:38;;;;;;;61.92;7.75;;;3.70;1.00;;;;;;5132183;27;20273;-66
2021/03/17 02:21:44;;;;;;;61.10;7.28;;;3.70;1.00;;;;;;5132595;27;20289;-66
2021/03/17 02:24:19;;;;;;;61.55;7.72;;;3.70;1.00;;;;;;5100980;27;20230;-67
2021/03/17 02:27:26;;;;;;;61.40;7.90;;;3.80;1.00;;;;;;5132061;27;20766;-66
2021/03/17 02:30:30;;;;;;;63.95;8.15;;;3.70;1.00;;;;;;5132399;27;20254;-67
2021/03/17 02:33:45;;;;;;;61.30;8.10;;;3.70;1.00;;;;;;5109879;27;20207;-66
2021/03/17 02:36:14;;;;;;;62.03;7.70;;;3.70;1.00;;;;;;5132315;27;20219;-66
2021/03/17 02:38:47;;;;;;;60.40;7.18;;;3.70;1.00;;;;;;5132400;27;20290;-67
2021/03/17 02:41:18;;;;;;;61.80;8.10;;;3.70;1.00;;;;;;5132185;27;20851;-66
2021/03/17 02:43:47;;;;;;;62.10;7.93;;;3.60;1.00;;;;;;5131888;27;20298;-66
2021/03/17 02:46:16;;;;;;;63.17;9.15;;;3.60;1.00;;;;;;5132142;27;20780;-66
2021/03/17 02:48:46;;;;;;;61.85;7.53;;;3.60;1.00;;;;;;5132333;27;20289;-67
2021/03/17 02:51:20;;;;;;;62.83;8.60;;;3.60;1.00;;;;;;5132128;27;20626;-66
2021/03/17 02:53:47;;;;;;;62.10;8.80;;;3.60;1.00;;;;;;5132372;27;20674;-66
2021/03/17 02:56:15;;;;;;;61.05;8.15;;;3.50;1.00;;;;;;5132262;27;20238;-66
2021/03/17 02:58:44;;;;;;;62.35;8.82;;;3.50;1.00;;;;;;5132106;27;20199;-66
2021/03/17 03:01:14;;;;;;;63.15;8.45;;;3.50;1.00;;;;;;5132147;27;20795;-66
2021/03/17 03:03:41;;;;;;;63.33;8.85;;;3.50;1.00;;;;;;5131941;27;20290;-66
2021/03/17 03:06:10;;;;;;;61.58;8.23;;;3.50;1.00;;;;;;5131835;27;20219;-66
2021/03/17 03:08:38;;;;;;;61.40;7.70;;;3.50;1.00;;;;;;5132279;27;20223;-66
2021/03/17 03:11:07;;;;;;;62.85;8.60;;;3.50;1.00;;;;;;5132147;27;20298;-66
2021/03/17 03:13:37;;;;;;;62.15;8.10;;;3.50;1.00;;;;;;5134187;27;20238;-66
2021/03/17 03:16:04;;;;;;;62.90;8.50;;;3.50;1.00;;;;;;5135793;27;20286;-66
2021/03/17 03:18:33;;;;;;;60.83;7.65;;;3.50;1.00;;;;;;5135618;27;20283;-66
2021/03/17 03:21:02;;;;;;;61.92;8.18;;;3.40;1.00;;;;;;5135551;27;20211;-66
2021/03/17 03:23:30;;;;;;;60.42;7.53;;;3.40;1.00;;;;;;5135933;27;20637;-66
2021/03/17 03:25:57;;;;;;;61.55;7.65;;;3.40;1.00;;;;;;5135654;27;20226;-66
2021/03/17 03:28:25;;;;;;;61.17;7.28;;;3.40;1.00;;;;;;5135438;27;20317;-66
2021/03/17 03:30:53;;;;;;;60.15;7.63;;;3.40;1.00;;;;;;5135548;27;20232;-66
2021/03/17 03:33:21;;;;;;;64.70;8.90;;;3.40;1.00;;;;;;5135070;27;20224;-66
2021/03/17 03:35:49;;;;;;;61.90;8.70;;;3.40;1.00;;;;;;5135239;27;20242;-66
2021/03/17 03:38:15;;;;;;;65.28;9.30;;;3.40;1.00;;;;;;5135108;27;20274;-66
2021/03/17 03:40:42;;;;;;;61.22;7.68;;;3.40;1.00;;;;;;5135331;27;20238;-66
2021/03/17 03:43:11;;;;;;;61.72;8.57;;;3.40;1.00;;;;;;5135147;27;20286;-67
2021/03/17 03:45:38;;;;;;;63.22;9.40;;;3.40;1.00;;;;;;5135001;27;20339;-67
2021/03/17 03:48:06;;;;;;;64.30;9.30;;;3.40;1.00;;;;;;5134991;27;20226;-67
2021/03/17 03:50:36;;;;;;;62.72;8.35;;;3.40;1.00;;;;;;5135237;27;20215;-67
2021/03/17 03:53:10;;;;;;;62.53;8.98;;;3.40;1.00;;;;;;5135427;27;20209;-67
2021/03/17 03:55:49;;;;;;;62.80;8.70;;;3.40;1.00;;;;;;5134959;27;20224;-66
2021/03/17 03:58:23;;;;;;;62.17;8.38;;;3.40;1.00;;;;;;5134660;27;20254;-66
2021/03/17 04:00:50;;;;;;;62.15;8.57;;;3.30;1.00;;;;;;5135248;27;20210;-67
2021/03/17 04:03:18;;;;;;;63.20;9.20;;;3.30;1.00;;;;;;5134948;27;20203;-66
2021/03/17 04:05:46;;;;;;;62.53;8.70;;;3.30;1.00;;;;;;5134780;27;20271;-66
2021/03/17 04:08:18;;;;;;;61.13;7.95;;;3.30;1.00;;;;;;5134656;27;20759;-66
2021/03/17 04:10:51;;;;;;;62.92;9.18;;;3.30;1.00;;;;;;5134676;27;20218;-66
2021/03/17 04:13:21;;;;;;;65.07;8.88;;;3.30;1.00;;;;;;5134709;27;20202;-66
2021/03/17 04:15:48;;;;;;;63.35;9.43;;;3.30;1.00;;;;;;5134673;27;20195;-67
2021/03/17 04:18:16;;;;;;;62.53;8.80;;;3.30;1.00;;;;;;5134621;27;20312;-66
2021/03/17 04:20:46;;;;;;;62.55;8.75;;;3.40;1.00;;;;;;5134511;27;20203;-66
2021/03/17 04:23:15;;;;;;;66.72;9.35;;;3.40;1.00;;;;;;5134331;27;20225;-66
2021/03/17 04:25:46;;;;;;;61.30;8.20;;;3.40;1.00;;;;;;5133207;27;20325;-67
2021/03/17 04:28:17;;;;;;;65.20;10.32;;;3.40;1.00;;;;;;5134515;27;20223;-66
2021/03/17 04:30:45;;;;;;;64.43;9.65;;;3.40;1.00;;;;;;5134619;27;20207;-66
2021/03/17 04:33:13;;;;;;;61.15;8.77;;;3.40;1.00;;;;;;5134205;27;20210;-66
2021/03/17 04:35:41;;;;;;;63.15;9.40;;;3.50;1.00;;;;;;5134591;27;20207;-66
2021/03/17 04:38:08;;;;;;;64.35;9.77;;;3.50;1.00;;;;;;5134230;27;20230;-66
2021/03/17 04:40:36;;;;;;;63.58;9.60;;;3.50;1.00;;;;;;5134444;27;20300;-67
2021/03/17 04:43:04;;;;;;;66.43;10.65;;;3.50;1.00;;;;;;5134152;27;20660;-67
2021/03/17 04:45:32;;;;;;;63.60;9.88;;;3.50;1.00;;;;;;5133590;27;20294;-67
2021/03/17 04:48:00;;;;;;;62.85;9.50;;;3.50;1.00;;;;;;5134011;27;20413;-67
2021/03/17 04:50:28;;;;;;;64.47;9.80;;;3.60;1.00;;;;;;5133768;27;20211;-67
2021/03/17 04:52:55;;;;;;;64.57;10.10;;;3.60;1.00;;;;;;5133935;27;20238;-67
2021/03/17 04:55:22;;;;;;;63.67;9.93;;;3.60;1.00;;;;;;5133947;27;20199;-67
2021/03/17 04:57:50;;;;;;;64.10;9.77;;;3.60;1.00;;;;;;5133915;27;20291;-67
2021/03/17 05:00:19;;;;;;;63.47;8.90;;;3.50;1.00;;;;;;5133813;27;20231;-67
2021/03/17 05:02:52;;;;;;;65.20;10.90;;;3.60;1.00;;;;;;5133581;27;20210;-67
2021/03/17 05:05:20;;;;;;;65.43;11.20;;;3.60;1.00;;;;;;5133688;27;20222;-67
2021/03/17 05:07:48;;;;;;;64.93;10.43;;;3.60;1.00;;;;;;5133410;27;20714;-66
2021/03/17 05:10:15;;;;;;;65.40;10.20;;;3.60;1.00;;;;;;5133510;27;20211;-67
2021/03/17 05:12:43;;;;;;;66.53;11.73;;;3.60;1.00;;;;;;5133360;27;20334;-66
2021/03/17 05:15:10;;;;;;;66.43;11.15;;;3.60;1.00;;;;;;5133401;27;20289;-67
2021/03/17 05:17:38;;;;;;;66.70;10.98;;;3.50;1.00;;;;;;5133029;27;20226;-66
2021/03/17 05:20:07;;;;;;;66.70;12.45;;;3.50;1.00;;;;;;5133494;27;20210;-66
2021/03/17 05:22:36;;;;;;;66.40;11.25;;;3.50;1.00;;;;;;5133151;27;20242;-66
2021/03/17 05:25:05;;;;;;;66.40;11.82;;;3.60;1.00;;;;;;5133219;27;20309;-66
2021/03/17 05:27:34;;;;;;;69.20;12.60;;;3.60;1.00;;;;;;5133294;27;20299;-66
2021/03/17 05:30:05;;;;;;;69.43;11.93;;;3.60;1.00;;;;;;5133002;27;20207;-66
2021/03/17 05:32:33;;;;;;;68.57;10.90;;;3.60;1.00;;;;;;5133196;27;20266;-67
2021/03/17 05:35:01;;;;;;;65.82;11.10;;;3.60;1.00;;;;;;5132942;27;20231;-66
2021/03/17 05:37:28;;;;;;;66.90;12.63;;;3.60;1.00;;;;;;5133120;27;20333;-66
2021/03/17 05:39:56;;;;;;;69.88;13.18;;;3.60;1.00;;;;;;5132980;27;20301;-67
2021/03/17 05:42:23;;;;;;;64.97;10.05;;;3.60;1.00;;;;;;5132892;27;20206;-66
2021/03/17 05:44:51;;;;;;;66.18;11.40;;;3.60;1.00;;;;;;5132890;27;20702;-66
2021/03/17 05:47:18;;;;;;;65.47;11.95;;;3.60;1.00;;;;;;5132763;27;20309;-67
2021/03/17 05:49:45;;;;;;;67.72;10.90;;;3.60;1.00;;;;;;5132938;27;20235;-66
2021/03/17 05:52:14;;;;;;;68.22;12.43;;;3.60;1.00;;;;;;5132878;27;20203;-67
2021/03/17 05:54:41;;;;;;;66.32;11.63;;;3.60;1.00;;;;;;5132583;27;20203;-67
2021/03/17 05:57:10;;;;;;;65.50;11.38;;;3.60;1.00;;;;;;5132586;27;20258;-66
2021/03/17 05:59:37;;;;;;;70.35;14.07;;;3.60;1.00;;;;;;5132961;27;20206;-66
2021/03/17 06:02:04;;;;;;;66.97;12.65;;;3.60;1.00;;;;;;5132755;27;20294;-66
2021/03/17 06:04:31;;;;;;;67.45;12.50;;;3.60;1.00;;;;;;5132481;27;20223;-66
2021/03/17 06:07:00;;;;;;;68.40;12.90;;;3.60;1.00;;;;;;5132473;27;20231;-66
2021/03/17 06:09:27;;;;;;;69.93;14.38;;;3.60;1.00;;;;;;5132419;27;20202;-66
2021/03/17 06:11:56;;;;;;;67.50;12.90;;;3.50;1.00;;;;;;5132264;27;20203;-66
2021/03/17 06:14:26;;;;;;;69.20;12.93;;;3.50;1.00;;;;;;5132409;27;20298;-66
2021/03/17 06:16:59;;;;;;;68.53;13.43;;;3.50;1.00;;;;;;5132161;27;20226;-66
2021/03/17 06:19:28;;;;;;;68.90;14.00;;;3.50;1.00;;;;;;5132391;27;20209;-66
2021/03/17 06:21:55;;;;;;;68.22;13.15;;;3.50;1.00;;;;;;5132304;27;20215;-66
2021/03/17 06:24:22;;;;;;;70.20;13.25;;;3.50;1.00;;;;;;5132618;27;20420;-66
2021/03/17 06:26:48;;;;;;;72.72;14.05;;;3.50;1.00;;;;;;5132340;27;20628;-66
2021/03/17 06:29:15;;;;;;;72.00;15.10;;;3.50;1.00;;;;;;5132205;27;20294;-67
2021/03/17 06:31:43;;;;;;;70.85;15.43;;;3.50;1.00;;;;;;5132321;27;20210;-66
2021/03/17 06:34:09;;;;;;;71.00;13.52;;;3.50;1.00;;;;;;5132725;27;20209;-66
2021/03/17 06:36:48;;;;;;;72.65;14.10;;;3.60;1.00;;;;;;5131995;27;20272;-66
2021/03/17 06:39:14;;;;;;;71.50;14.25;;;3.60;1.00;;;;;;5132421;27;20225;-66
2021/03/17 06:41:46;;;;;;;73.40;16.15;;;3.60;1.00;;;;;;5132391;27;20671;-67
2021/03/17 06:44:19;;;;;;;71.70;13.75;;;3.70;1.00;;;;;;5132138;27;20202;-67
2021/03/17 06:47:18;;;;;;;73.68;16.30;;;3.70;1.00;;;;;;5132125;27;20227;-67
2021/03/17 06:49:46;;;;;;;71.72;14.57;;;3.80;1.00;;;;;;5136436;27;20218;-67
2021/03/17 06:52:29;;;;;;;75.53;17.83;;;3.90;1.00;;;;;;5136280;27;20550;-67
2021/03/17 06:55:13;;;;;;;73.38;16.98;;;3.90;1.00;;;;;;5136186;27;20207;-67
2021/03/17 06:57:42;;;;;;;71.32;15.93;;;4.00;1.00;;;;;;5135939;27;20227;-67
2021/03/17 07:00:21;;;;;;;73.10;16.17;;;4.00;1.00;;;;;;5136230;27;20241;-67
2021/03/17 07:02:52;;;;;;;73.97;16.30;;;4.10;1.00;;;;;;5135847;27;20312;-67
2021/03/17 07:05:19;;;;;;;78.95;18.33;;;4.20;1.00;;;;;;5136112;27;20287;-67
2021/03/17 07:07:48;;;;;;;77.82;18.42;;;4.30;1.00;;;;;;5135736;27;20314;-67
2021/03/17 07:10:14;;;;;;;76.20;16.98;;;4.50;1.00;;;;;;5135737;27;20355;-67
2021/03/17 07:12:42;;;;;;;78.28;18.90;;;4.70;1.00;;;;;;5135953;27;20239;-67
2021/03/17 07:15:10;;;;;;;79.70;19.23;;;4.80;1.00;;;;;;5135313;27;20217;-67
2021/03/17 07:17:36;;;;;;;77.05;19.55;;;4.90;1.00;;;;;;5135881;27;20229;-67
2021/03/17 07:20:07;;;;;;;75.57;18.27;;;5.00;1.00;;;;;;5135833;27;20361;-67
2021/03/17 07:22:33;;;;;;;79.22;17.30;;;5.00;1.00;;;;;;5135709;27;20727;-67
2021/03/17 07:25:01;;;;;;;73.35;16.83;;;5.00;1.00;;;;;;5135695;27;20242;-67
2021/03/17 07:27:29;;;;;;;78.50;18.30;;;5.00;1.00;;;;;;5135728;27;20231;-67
2021/03/17 07:30:11;;;;;;;74.60;17.20;;;5.00;1.00;;;;;;5135698;27;20257;-67
2021/03/17 07:32:58;;;;;;;75.28;17.45;;;5.00;1.00;;;;;;5135459;27;20633;-67
2021/03/17 07:35:27;;;;;;;73.22;16.50;;;5.00;1.00;;;;;;5135256;27;20211;-67
2021/03/17 07:38:07;;;;;;;73.32;16.65;;;5.00;1.00;;;;;;5135485;27;20628;-67
2021/03/17 07:40:36;;;;;;;75.90;17.50;;;5.10;1.00;;;;;;5135427;27;20285;-67
2021/03/17 07:43:03;;;;;;;74.05;17.63;;;5.10;1.00;;;;;;5135228;27;20202;-67
2021/03/17 07:45:32;;;;;;;74.35;16.77;;;5.20;1.00;;;;;;5134896;27;20305;-67
2021/03/17 07:48:01;;;;;;;75.18;18.27;;;5.30;1.00;;;;;;5135179;27;20305;-67
2021/03/17 07:50:29;;;;;;;75.22;17.85;;;5.50;1.00;;;;;;5135711;27;20263;-67
2021/03/17 07:52:58;;;;;;;78.20;18.17;;;5.70;1.00;;;;;;5134882;27;20209;-67
2021/03/17 07:55:25;;;;;;;77.40;18.58;;;5.70;1.00;;;;;;5134995;27;20206;-67
2021/03/17 07:57:51;;;;;;;77.15;17.77;;;5.80;1.00;;;;;;5134851;27;20219;-67
2021/03/17 08:00:20;;;;;;;77.93;18.50;;;5.90;1.00;;;;;;5134952;27;20214;-67
2021/03/17 08:02:48;;;;;;;72.70;16.67;;;5.90;1.00;;;;;;5135051;27;20633;-67
2021/03/17 08:05:15;;;;;;;74.72;15.90;;;6.00;1.00;;;;;;5134973;27;20219;-67
2021/03/17 08:07:42;;;;;;;73.03;16.15;;;6.10;1.00;;;;;;5134850;27;20259;-67
2021/03/17 08:10:09;;;;;;;71.63;15.98;;;6.10;1.00;;;;;;5135310;27;20291;-67
2021/03/17 08:12:37;;;;;;;73.57;16.10;;;6.20;1.00;;;;;;5134443;27;20290;-67
2021/03/17 08:15:05;;;;;;;76.25;17.15;;;6.30;1.00;;;;;;5134765;27;20207;-66
2021/03/17 08:17:33;;;;;;;71.13;15.20;;;6.60;1.00;;;;;;5133705;27;20306;-66
2021/03/17 08:20:21;;;;;;;71.85;14.68;;;6.80;1.00;;;;;;5134632;27;20296;-66
2021/03/17 08:22:50;;;;;;;74.93;17.17;;;6.90;1.00;;;;;;5129211;27;20286;-65
2021/03/17 08:25:35;;;;;;;74.68;15.77;;;7.00;1.00;;;;;;5134280;27;20232;-66
2021/03/17 08:28:21;;;;;;;73.30;16.50;;;7.20;1.00;;;;;;5134576;27;20257;-65
2021/03/17 08:30:51;;;;;;;69.43;14.60;;;7.30;1.00;;;;;;5134487;27;20893;-66
2021/03/17 08:33:34;;;;;;;68.75;13.18;;;7.20;1.00;;;;;;5134174;27;20239;-65
2021/03/17 08:36:05;;;;;;;68.53;11.60;;;7.10;1.00;;;;;;5134210;27;20209;-66
2021/03/17 08:38:47;;;;;;;67.93;11.50;;;6.90;1.00;;;;;;5134339;27;20303;-65
2021/03/17 08:41:15;;;;;;;69.32;13.02;;;6.70;1.00;;;;;;5134267;27;20694;-66
2021/03/17 08:43:46;;;;;;;66.85;11.70;;;6.50;1.00;;;;;;5134053;27;20217;-65
2021/03/17 08:46:15;;;;;;;69.03;13.52;;;6.40;1.00;;;;;;5134114;27;20230;-65
2021/03/17 08:49:00;;;;;;;68.80;12.52;;;6.30;1.00;;;;;;5133954;27;20209;-65
2021/03/17 08:52:03;;;;;;;66.82;11.43;;;6.30;1.00;;;;;;5133418;27;20656;-66
2021/03/17 08:54:59;;;;;;;67.57;11.30;;;6.50;1.00;;;;;;5134059;27;20663;-65
2021/03/17 08:57:58;;;;;;;68.32;12.35;;;6.80;1.00;;;;;;5132590;27;20229;-66
2021/03/17 09:00:54;;;;;;;64.65;10.68;;;7.30;1.00;;;;;;5133555;27;20205;-65
2021/03/17 09:03:51;;;;;;;64.07;9.23;;;7.60;1.00;;;;;;5134238;27;20206;-65
2021/03/17 09:06:26;;;;;;;64.05;8.57;;;7.70;1.00;;;;;;5133029;27;21021;-65
2021/03/17 09:09:01;;;;;;;63.60;9.97;;;7.60;1.00;;;;;;5133690;27;20591;-66
2021/03/17 09:11:57;;;;;;;63.00;8.80;;;7.50;1.00;;;;;;5133337;27;20450;-65
2021/03/17 09:14:39;;;;;;;63.40;8.43;;;7.30;1.00;;;;;;5133450;27;20450;-65
2021/03/17 09:17:27;;;;;;;64.07;9.00;;;7.20;1.00;;;;;;5130466;27;20485;-66
2021/03/17 09:20:23;;;;;;;64.75;8.10;;;7.00;1.00;;;;;;5133099;27;20209;-66
2021/03/17 09:23:05;;;;;;;62.00;8.17;;;6.80;1.00;;;;;;5130823;27;20636;-66
2021/03/17 09:25:35;;;;;;;60.33;7.17;;;6.90;1.00;;;;;;5130721;27;20575;-67
2021/03/17 09:28:05;;;;;;;68.50;9.47;;;7.10;1.00;;;;;;5133482;27;20472;-66
2021/03/17 09:30:44;;;;;;;62.50;8.10;;;7.20;1.00;;;;;;5133372;27;20462;-66
2021/03/17 09:33:14;;;;;;;64.10;8.93;;;7.40;1.00;;;;;;5133415;27;20481;-66
2021/03/17 09:35:41;;;;;;;63.20;9.00;;;7.50;1.00;;;;;;5132730;27;20489;-67
2021/03/17 09:38:11;;;;;;;63.00;7.67;;;7.50;1.00;;;;;;5132557;27;20467;-67
2021/03/17 09:40:47;;;;;;;60.60;6.70;;;7.60;1.00;;;;;;5132387;27;20494;-66
2021/03/17 09:43:39;;;;;;;62.33;7.23;;;7.70;1.00;;;;;;5132407;27;20446;-68
2021/03/17 09:46:29;;;;;;;59.87;6.47;;;7.90;1.00;;;;;;5117348;27;20489;-67
2021/03/17 09:48:58;;;;;;;60.15;6.50;;;8.20;1.00;;;;;;5132178;27;20954;-67
2021/03/17 09:51:27;;;;;;;61.03;7.30;;;8.20;1.00;;;;;;5132370;27;20216;-66
2021/03/17 09:53:55;;;;;;;59.67;6.53;;;8.20;1.00;;;;;;5132433;27;20444;-67
2021/03/17 09:56:40;;;;;;;61.07;6.43;;;8.10;1.00;;;;;;5132064;27;20530;-67
2021/03/17 09:59:22;;;;;;;62.67;7.90;;;8.30;1.00;;;;;;5131967;27;20443;-67
2021/03/17 10:01:50;;;;;;;59.53;6.23;;;8.30;1.00;;;;;;5131989;27;20546;-67
2021/03/17 10:04:24;;;;;;;62.00;6.87;;;8.10;1.00;;;;;;5132055;27;20970;-66
2021/03/17 10:06:52;;;;;;;60.40;5.80;;;7.80;1.00;;;;;;5131741;27;20565;-68
2021/03/17 10:09:18;;;;;;;61.90;6.77;;;7.40;1.00;;;;;;5131791;27;20493;-69
2021/03/17 10:11:46;;;;;;;60.80;5.90;;;7.20;1.00;;;;;;5132244;27;20439;-68
2021/03/17 10:14:14;;;;;;;59.33;5.53;;;6.90;1.00;;;;;;5132041;27;20290;-69
2021/03/17 10:16:40;;;;;;;62.80;6.30;;;6.70;1.00;;;;;;5131770;27;20216;-66
2021/03/17 10:19:11;;;;;;;62.53;6.20;;;6.40;1.00;;;;;;5131798;27;20442;-66
2021/03/17 10:21:38;;;;;;;59.88;5.32;;;6.20;1.00;;;;;;5131301;27;20855;-66
2021/03/17 10:24:05;;;;;;;59.45;5.15;;;6.00;1.00;;;;;;5131346;27;20220;-68
2021/03/17 10:26:33;;;;;;;60.60;5.60;;;5.80;1.00;;;;;;5131756;27;20274;-66
2021/03/17 10:29:00;;;;;;;58.60;5.60;;;5.60;1.00;;;;;;5131653;27;20701;-65
2021/03/17 10:31:31;;;;;;;60.20;6.75;;;5.40;1.00;;;;;;5131625;27;21123;-67
2021/03/17 10:33:58;;;;;;;61.08;6.78;;;5.30;1.00;;;;;;5131460;27;20235;-65
2021/03/17 10:36:25;;;;;;;71.97;7.37;;;5.00;1.00;;;;;;5110433;27;615554;-65
2021/03/17 10:38:53;;;;;;;64.50;8.80;;;4.80;1.00;;;;;;5132337;27;20531;-65
2021/03/17 10:41:38;;;;;;;61.15;7.15;;;4.70;1.00;;;;;;5132735;27;20309;-66
2021/03/17 10:44:16;;;;;;;61.08;6.97;;;4.80;1.00;;;;;;5132461;27;20587;-66
2021/03/17 10:47:06;;;;;;;62.03;7.07;;;5.20;1.00;;;;;;5131586;27;20233;-66
2021/03/17 10:49:35;;;;;;;63.60;7.20;;;5.80;1.00;;;;;;5132416;27;20286;-66
2021/03/17 10:52:02;;;;;;;62.03;8.20;;;6.30;1.00;;;;;;5132203;27;20195;-66
2021/03/17 10:54:31;;;;;;;65.88;7.72;;;6.60;1.00;;;;;;5131814;27;20461;-65
2021/03/17 10:56:58;;;;;;;62.17;7.10;;;6.90;1.00;;;;;;5131237;27;20644;-66
2021/03/17 10:59:28;;;;;;;62.37;8.40;;;7.40;1.00;;;;;;5131748;27;20449;-65
2021/03/17 11:02:18;;;;;;;62.00;7.80;;;7.90;1.00;;;;;;5131760;27;20443;-65
2021/03/17 11:05:21;;;;;;;62.10;7.53;;;8.20;1.00;;;;;;5132039;27;20537;-65
2021/03/17 11:08:12;;;;;;;66.50;8.00;;;8.40;1.00;;;;;;5132338;27;20469;-66
2021/03/17 11:10:54;;;;;;;63.20;8.90;;;8.40;1.00;;;;;;5111332;28;20461;-65
2021/03/17 11:13:43;;;;;;;64.40;8.30;;;8.30;1.00;;;;;;5111437;28;20448;-65
2021/03/17 11:16:27;;;;;;;62.37;8.77;;;8.00;1.00;;;;;;5111690;28;20447;-65
2021/03/17 11:18:55;;;;;;;65.40;9.90;;;7.70;1.00;;;;;;5111373;28;21039;-65
2021/03/17 11:21:27;;;;;;;64.57;8.93;;;7.40;1.00;;;;;;5111569;28;20854;-65
2021/03/17 11:23:57;;;;;;;65.10;8.17;;;7.20;1.00;;;;;;5112078;28;20532;-65
2021/03/17 11:26:26;;;;;;;64.80;8.53;;;7.10;1.00;;;;;;5131819;27;20478;-65
2021/03/17 11:28:54;;;;;;;62.70;8.55;;;7.00;1.00;;;;;;5131966;27;20533;-65
2021/03/17 11:31:28;;;;;;;63.30;8.00;;;6.90;1.00;;;;;;5132036;27;20673;-65
2021/03/17 11:33:55;;;;;;;63.60;8.43;;;6.80;1.00;;;;;;5132944;27;20296;-65
2021/03/17 11:36:22;;;;;;;63.58;8.20;;;6.80;1.00;;;;;;5135327;27;20297;-65
2021/03/17 11:38:49;;;;;;;61.87;7.40;;;6.60;1.00;;;;;;5135282;27;20234;-65
2021/03/17 11:41:18;;;;;;;63.65;8.75;;;6.50;1.00;;;;;;5135724;27;20526;-65
2021/03/17 11:43:45;;;;;;;61.45;7.20;;;6.30;1.00;;;;;;5135219;27;20242;-65
2021/03/17 11:46:12;;;;;;;61.80;7.80;;;6.20;1.00;;;;;;5135330;27;20330;-65
2021/03/17 11:48:40;;;;;;;60.38;6.47;;;6.20;1.00;;;;;;5135112;27;20227;-65
2021/03/17 11:51:08;;;;;;;60.78;5.95;;;6.10;1.00;;;;;;5135262;27;20706;-65
2021/03/17 11:53:36;;;;;;;60.65;6.20;;;6.00;1.00;;;;;;5135296;27;20669;-65
2021/03/17 11:56:05;;;;;;;59.63;5.68;;;5.80;1.00;;;;;;5133905;27;20424;-65
2021/03/17 11:58:33;;;;;;;58.97;5.55;;;5.70;1.00;;;;;;5135163;27;20226;-65
2021/03/17 12:01:02;;;;;;;61.53;6.05;;;5.60;1.00;;;;;;5125716;27;20315;-65
2021/03/17 12:03:28;;;;;;;62.05;5.90;;;5.50;1.00;;;;;;5114274;28;20269;-65
2021/03/17 12:05:55;;;;;;;58.60;5.10;;;5.40;1.00;;;;;;5114178;27;20219;-66
2021/03/17 12:08:21;;;;;;;61.00;7.07;;;5.40;1.00;;;;;;5114086;28;20708;-64
2021/03/17 12:10:51;;;;;;;61.50;5.80;;;5.30;1.00;;;;;;5114309;28;20204;-64
2021/03/17 12:13:17;;;;;;;59.42;5.68;;;5.20;1.00;;;;;;5114097;28;20667;-66
2021/03/17 12:15:44;;;;;;;60.97;6.25;;;5.10;1.00;;;;;;5113879;28;20207;-66
2021/03/17 12:18:11;;;;;;;60.58;6.93;;;5.10;1.00;;;;;;5113744;28;20662;-67
2021/03/17 12:20:37;;;;;;;66.57;7.20;;;5.10;1.00;;;;;;5114039;28;20738;-65
2021/03/17 12:23:05;;;;;;;62.58;7.13;;;5.10;1.00;;;;;;5114282;28;20214;-64
2021/03/17 12:25:32;;;;;;;65.88;7.63;;;5.10;1.00;;;;;;5114028;28;20243;-64
2021/03/17 12:27:59;;;;;;;60.90;6.57;;;5.10;1.00;;;;;;5113144;27;20255;-64
2021/03/17 12:30:25;;;;;;;61.55;7.72;;;5.10;1.00;;;;;;5121658;27;20191;-64
2021/03/17 12:32:54;;;;;;;62.67;7.10;;;5.10;1.00;;;;;;5134099;27;20207;-65
2021/03/17 12:35:22;;;;;;;62.38;7.30;;;5.00;1.00;;;;;;5134364;27;20294;-64
2021/03/17 12:37:50;;;;;;;60.40;7.25;;;4.90;1.00;;;;;;5134449;27;20318;-65
2021/03/17 12:40:19;;;;;;;64.05;7.03;;;4.90;1.00;;;;;;5134375;27;20234;-65
2021/03/17 12:42:46;;;;;;;65.95;8.18;;;4.90;1.00;;;;;;5133986;27;20747;-65
2021/03/17 12:45:15;;;;;;;60.50;6.80;;;5.00;1.00;;;;;;5133015;27;20567;-64
2021/03/17 12:47:42;;;;;;;63.78;7.65;;;5.10;1.00;;;;;;5133908;27;20313;-64
2021/03/17 12:50:12;;;;;;;63.13;7.80;;;5.20;1.00;;;;;;5134143;27;20202;-64
2021/03/17 12:52:39;;;;;;;62.35;7.82;;;5.20;1.00;;;;;;5133881;27;20290;-64
2021/03/17 12:55:07;;;;;;;63.92;8.13;;;5.30;1.00;;;;;;5133772;27;20199;-64
2021/03/17 12:57:34;;;;;;;62.83;7.80;;;5.50;1.00;;;;;;5134301;27;20233;-64
2021/03/17 13:00:03;;;;;;;61.85;7.57;;;5.70;1.00;;;;;;5132388;27;20203;-64
2021/03/17 13:02:30;;;;;;;62.35;7.15;;;5.90;1.00;;;;;;5133985;27;20214;-64
2021/03/17 13:04:56;;;;;;;61.17;7.03;;;6.10;1.00;;;;;;5133718;27;20349;-64
2021/03/17 13:07:24;;;;;;;61.60;7.47;;;6.10;1.00;;;;;;5133801;27;20315;-64
2021/03/17 13:09:50;;;;;;;61.50;7.70;;;6.00;1.00;;;;;;5133678;27;20632;-64
2021/03/17 13:12:17;;;;;;;62.28;7.78;;;5.90;1.00;;;;;;5133527;27;20207;-64